createdAt,value
2022-08-24T00:00:23.826Z,4.80
2022-08-24T00:07:17.957Z,6.00
2022-08-24T00:14:11.936Z,5.68
2022-08-24T00:20:54.570Z,5.18
2022-08-24T00:27:37.825Z,6.00
2022-08-24T00:34:20.292Z,5.93
2022-08-24T00:41:04.356Z,5.63
2022-08-24T00:47:51.724Z,5.35
2022-08-24T00:54:45.929Z,5.10
2022-08-24T01:01:29.345Z,6.00
2022-08-24T01:08:12.801Z,6.47
2022-08-24T01:14:58.100Z,4.82
2022-08-24T01:21:57.366Z,4.75
2022-08-24T01:28:42.252Z,4.70
2022-08-24T01:35:25.398Z,5.25
2022-08-24T01:42:07.942Z,4.68
2022-08-24T01:48:50.703Z,4.32
2022-08-24T01:55:33.765Z,4.15
2022-08-24T02:02:28.686Z,4.45
2022-08-24T02:09:12.261Z,5.13
2022-08-24T02:15:54.761Z,4.55
2022-08-24T02:22:37.330Z,5.18
2022-08-24T02:29:20.007Z,5.53
2022-08-24T02:36:03.013Z,5.00
2022-08-24T02:42:46.576Z,4.95
2022-08-24T02:49:28.971Z,5.53
2022-08-24T02:56:11.726Z,4.88
2022-08-24T03:02:54.907Z,5.65
2022-08-24T03:09:37.960Z,5.80
2022-08-24T03:16:20.419Z,5.13
2022-08-24T03:23:04.270Z,6.07
2022-08-24T03:29:46.889Z,7.10
2022-08-24T03:36:29.663Z,7.13
2022-08-24T03:43:32.007Z,7.55
2022-08-24T03:50:15.150Z,9.32
2022-08-24T03:56:58.761Z,8.88
2022-08-24T04:03:44.418Z,9.07
2022-08-24T04:10:28.771Z,8.50
2022-08-24T04:17:12.490Z,8.38
2022-08-24T04:23:59.380Z,8.10
2022-08-24T04:30:43.717Z,8.65
2022-08-24T04:37:29.122Z,7.60
2022-08-24T04:44:12.646Z,7.78
2022-08-24T04:50:55.147Z,7.75
2022-08-24T04:57:38.267Z,6.97
2022-08-24T05:04:21.134Z,7.07
2022-08-24T05:11:08.246Z,6.95
2022-08-24T05:17:51.519Z,6.93
2022-08-24T05:24:34.589Z,6.60
2022-08-24T05:31:21.175Z,6.45
2022-08-24T05:38:04.334Z,6.45
2022-08-24T05:44:52.347Z,6.72
2022-08-24T05:51:37.128Z,5.55
2022-08-24T05:58:31.037Z,5.35
2022-08-24T06:05:17.851Z,5.20
2022-08-24T06:12:02.921Z,5.50
2022-08-24T06:18:45.899Z,4.50
2022-08-24T06:25:47.261Z,4.55
2022-08-24T06:32:30.316Z,4.43
2022-08-24T06:39:13.271Z,4.40
2022-08-24T06:46:00.901Z,4.63
2022-08-24T06:52:46.721Z,4.68
2022-08-24T06:59:29.200Z,4.40
2022-08-24T07:06:13.703Z,3.83
2022-08-24T07:12:57.561Z,3.72
2022-08-24T07:19:40.244Z,3.60
2022-08-24T07:26:27.061Z,3.63
2022-08-24T07:33:10.286Z,3.63
2022-08-24T07:39:54.516Z,3.22
2022-08-24T07:46:38.920Z,3.25
2022-08-24T07:53:27.958Z,3.03
2022-08-24T08:00:19.484Z,2.88
2022-08-24T08:07:07.418Z,3.00
2022-08-24T08:13:51.475Z,4.25
2022-08-24T08:20:36.662Z,2.88
2022-08-24T08:27:21.740Z,2.55
2022-08-24T08:34:05.097Z,2.50
2022-08-24T08:41:00.215Z,2.30
2022-08-24T08:55:21.137Z,2.22
2022-08-24T09:02:30.418Z,1.90
2022-08-24T09:09:35.762Z,2.10
2022-08-24T09:16:31.482Z,2.42
2022-08-24T09:23:32.227Z,2.40
2022-08-24T09:30:23.414Z,2.25
2022-08-24T09:37:31.459Z,2.38
2022-08-24T09:44:22.723Z,1.95
2022-08-24T09:51:34.201Z,1.83
2022-08-24T09:58:31.667Z,1.90
2022-08-24T10:05:34.623Z,2.50
2022-08-24T10:12:36.029Z,2.00
2022-08-24T10:19:51.780Z,1.85
2022-08-24T10:27:03.570Z,1.83
2022-08-24T10:33:52.153Z,1.70
2022-08-24T10:41:03.788Z,1.90
2022-08-24T10:48:25.726Z,1.88
2022-08-24T10:55:31.043Z,1.73
2022-08-24T11:02:33.064Z,1.63
2022-08-24T11:09:19.879Z,1.98
2022-08-24T11:16:04.309Z,1.58
2022-08-24T11:23:31.027Z,1.40
2022-08-24T11:30:24.230Z,1.90
2022-08-24T11:37:14.274Z,2.05
2022-08-24T11:44:03.663Z,1.70
2022-08-24T11:50:58.212Z,1.70
2022-08-24T11:58:05.653Z,1.77
2022-08-24T12:05:16.274Z,1.77
2022-08-24T12:12:13.199Z,2.05
2022-08-24T12:19:15.615Z,1.63
2022-08-24T12:26:07.764Z,1.70
2022-08-24T12:33:02.970Z,1.90
2022-08-24T12:39:59.889Z,1.80
2022-08-24T12:46:44.559Z,1.83
2022-08-24T12:53:48.009Z,1.77
2022-08-24T13:00:47.354Z,1.83
2022-08-24T13:07:39.842Z,1.80
2022-08-24T13:14:25.756Z,1.90
2022-08-24T13:21:17.019Z,1.80
2022-08-24T13:28:09.365Z,1.80
2022-08-24T13:34:52.107Z,1.90
2022-08-24T13:42:02.772Z,1.80
2022-08-24T13:49:12.273Z,1.92
2022-08-24T13:56:15.942Z,2.38
2022-08-24T14:03:26.515Z,1.85
2022-08-24T14:10:27.205Z,1.90
2022-08-24T14:17:47.328Z,1.83
2022-08-24T14:24:46.234Z,1.90
2022-08-24T14:31:29.897Z,2.40
2022-08-24T14:38:24.447Z,2.30
2022-08-24T14:45:12.812Z,2.00
2022-08-24T14:52:02.933Z,2.38
2022-08-24T14:59:19.017Z,1.90
2022-08-24T15:06:25.619Z,2.00
2022-08-24T15:13:25.981Z,2.15
2022-08-24T15:20:18.615Z,2.20
2022-08-24T15:27:31.568Z,1.90
2022-08-24T15:34:13.960Z,1.98
2022-08-24T15:41:31.550Z,2.00
2022-08-24T15:48:17.535Z,2.30
2022-08-24T15:55:03.435Z,2.13
2022-08-24T16:02:26.360Z,1.67
2022-08-24T16:09:20.915Z,2.00
2022-08-24T16:16:07.296Z,1.73
2022-08-24T16:22:58.970Z,1.80
2022-08-24T16:29:45.962Z,2.13
2022-08-24T16:36:29.914Z,2.00
2022-08-24T16:43:13.313Z,1.98
2022-08-24T16:49:56.175Z,2.88
2022-08-24T16:56:38.586Z,2.38
2022-08-24T17:03:21.087Z,1.88
2022-08-24T17:10:05.729Z,1.83
2022-08-24T17:16:48.491Z,1.90
2022-08-24T17:23:31.865Z,1.80
2022-08-24T17:30:17.026Z,1.63
2022-08-24T17:37:00.103Z,1.90
2022-08-24T17:43:42.629Z,1.80
2022-08-24T17:50:25.190Z,2.38
2022-08-24T17:57:12.224Z,1.92
2022-08-24T18:03:54.748Z,1.98
2022-08-24T18:10:37.100Z,2.28
2022-08-24T18:17:38.865Z,2.95
2022-08-24T18:24:21.302Z,2.60
2022-08-24T18:31:03.696Z,2.42
2022-08-24T18:37:46.123Z,2.50
2022-08-24T18:44:31.759Z,2.50
2022-08-24T18:51:18.643Z,2.17
2022-08-24T18:58:01.061Z,2.10
2022-08-24T19:04:48.038Z,2.25
2022-08-24T19:11:30.394Z,2.25
2022-08-24T19:18:15.941Z,2.05
2022-08-24T19:24:59.020Z,2.33
2022-08-24T19:31:41.643Z,2.35
2022-08-24T19:38:26.122Z,2.30
2022-08-24T19:45:31.208Z,2.30
2022-08-24T19:52:14.182Z,2.45
2022-08-24T19:59:07.960Z,2.50
2022-08-24T20:05:50.782Z,2.97
2022-08-24T20:12:33.288Z,3.53
2022-08-24T20:19:18.478Z,2.58
2022-08-24T20:26:03.262Z,3.25
2022-08-24T20:32:45.699Z,2.80
2022-08-24T20:39:30.620Z,3.67
2022-08-24T20:46:13.169Z,2.78
2022-08-24T20:52:55.834Z,2.90
2022-08-24T20:59:38.295Z,2.67
2022-08-24T21:06:20.765Z,3.15
2022-08-24T21:13:05.238Z,2.67
2022-08-24T21:19:47.809Z,2.80
2022-08-24T21:26:31.726Z,2.65
2022-08-24T21:33:32.893Z,3.58
2022-08-24T21:40:15.295Z,3.08
2022-08-24T21:46:58.412Z,2.70
2022-08-24T21:53:40.837Z,2.70
2022-08-24T22:00:24.431Z,3.08
2022-08-24T22:07:07.318Z,3.20
2022-08-24T22:13:50.732Z,3.40
2022-08-24T22:20:33.182Z,2.97
2022-08-24T22:27:15.560Z,3.30
2022-08-24T22:34:00.107Z,3.13
2022-08-24T22:40:43.808Z,2.80
2022-08-24T22:47:27.803Z,2.92
2022-08-24T22:54:10.987Z,3.30
2022-08-24T23:00:54.004Z,3.28
2022-08-24T23:07:36.474Z,3.40
2022-08-24T23:14:20.616Z,3.20
2022-08-24T23:21:03.087Z,3.03
2022-08-24T23:27:49.354Z,2.95
2022-08-24T23:34:33.194Z,3.45
2022-08-24T23:41:17.751Z,3.15
2022-08-24T23:48:00.165Z,3.85
2022-08-24T23:54:42.566Z,3.50
